ΕΜΥ, Εθνική Μετεωρολογική Υπηρεσία - Δελτία Καιρού, Προγνώσεις

ΑΕΡΟΝΑΥΤΙΛΙΑ

GREEK AIRPORTS CODES

TAF LGKV 091100Z 0912/1012 06010KT 9999 FEW030 SCT080 TEMPO 0911/0913 06012G22KT PROB30 TEMPO 0915/0920 FEW020TCU SCT030 BKN080 BECMG 0920/0922 FEW030 BECMG 1010/1012 FEW030 SCT080=

EUROPEAN AIRPORTS CODES

LFPO 091630Z 03010KT 350V070 CAVOK 30/10 Q1022=